createdAt,value
2024-04-23T01:31:33.019Z,72.06
2024-04-23T01:32:39.324Z,71.79
2024-04-23T01:33:45.021Z,71.77
2024-04-23T01:34:49.013Z,71.57
2024-04-23T01:35:52.224Z,71.58
2024-04-23T01:36:54.945Z,71.52
2024-04-23T01:37:58.554Z,71.50
2024-04-23T01:39:02.378Z,71.42
2024-04-23T01:40:07.058Z,71.80
2024-04-23T01:41:09.801Z,71.79
2024-04-23T01:42:13.551Z,71.84
2024-04-23T01:43:17.640Z,71.91
2024-04-23T01:44:20.719Z,71.87
2024-04-23T01:45:24.644Z,71.89
2024-04-23T01:46:28.119Z,71.77
2024-04-23T01:47:31.261Z,71.76
2024-04-23T01:48:34.638Z,71.87
2024-04-23T01:49:38.128Z,71.84
2024-04-23T01:50:41.075Z,71.93
2024-04-23T01:51:44.006Z,71.85
2024-04-23T01:52:46.877Z,71.75
2024-04-23T01:53:49.680Z,71.75
2024-04-23T01:54:52.656Z,71.78
2024-04-23T01:55:56.538Z,71.78
2024-04-23T01:57:03.921Z,71.75
2024-04-23T01:58:06.906Z,71.87
2024-04-23T01:59:09.600Z,71.73
2024-04-23T02:00:15.409Z,71.67
2024-04-23T02:01:22.178Z,71.68
2024-04-23T02:02:26.022Z,71.65
2024-04-23T02:03:31.152Z,71.66
2024-04-23T02:04:35.020Z,71.76
2024-04-23T02:05:39.441Z,71.64
2024-04-23T02:06:42.624Z,71.71
2024-04-23T02:07:46.739Z,71.90
2024-04-23T02:08:50.540Z,71.88
2024-04-23T02:09:54.091Z,72.00
2024-04-23T02:10:57.203Z,72.06
2024-04-23T02:12:04.739Z,72.01
2024-04-23T02:13:08.979Z,72.00
2024-04-23T02:14:11.606Z,71.97
2024-04-23T02:15:14.621Z,72.09
2024-04-23T02:16:18.034Z,71.96
2024-04-23T02:17:20.715Z,72.09
2024-04-23T02:18:23.733Z,72.05
2024-04-23T02:19:26.600Z,71.91
2024-04-23T02:20:29.324Z,71.89
2024-04-23T02:21:32.238Z,71.83
2024-04-23T02:22:35.275Z,71.90
2024-04-23T02:23:37.943Z,71.84
2024-04-23T02:24:40.884Z,71.81
2024-04-23T02:25:43.506Z,71.75
2024-04-23T02:26:46.225Z,71.71
2024-04-23T02:27:49.294Z,71.76
2024-04-23T02:28:52.028Z,71.78
2024-04-23T02:29:54.898Z,71.82
2024-04-23T02:30:57.584Z,71.75
2024-04-23T02:32:04.195Z,71.70
2024-04-23T02:33:11.588Z,71.62
2024-04-23T02:34:14.536Z,71.59
2024-04-23T02:35:17.632Z,71.58
2024-04-23T02:36:20.223Z,71.56
2024-04-23T02:37:23.078Z,71.55
2024-04-23T02:38:25.738Z,71.51
2024-04-23T02:39:28.423Z,71.59
2024-04-23T02:40:31.217Z,71.50
2024-04-23T02:41:37.721Z,71.54
2024-04-23T02:42:40.392Z,71.49
2024-04-23T02:43:43.264Z,71.42
2024-04-23T02:44:46.004Z,71.42
2024-04-23T02:45:48.887Z,71.46
2024-04-23T02:46:51.809Z,71.47
2024-04-23T02:47:54.624Z,71.52
2024-04-23T02:48:57.266Z,71.53
2024-04-23T02:49:59.931Z,71.45
2024-04-23T02:51:02.742Z,71.45
2024-04-23T02:52:05.482Z,71.49
2024-04-23T02:53:08.121Z,71.55
2024-04-23T02:54:10.802Z,71.51
2024-04-23T02:55:13.570Z,71.44
2024-04-23T02:56:16.426Z,71.35
2024-04-23T02:57:19.287Z,71.29
2024-04-23T02:58:21.902Z,71.23
2024-04-23T02:59:24.591Z,71.22
2024-04-23T03:00:27.369Z,71.21
2024-04-23T03:01:30.078Z,71.24
2024-04-23T03:02:32.773Z,71.26
2024-04-23T03:03:35.499Z,71.21
2024-04-23T03:04:38.392Z,71.17
2024-04-23T03:05:41.320Z,71.20
2024-04-23T03:06:44.009Z,71.23
2024-04-23T03:07:46.673Z,71.20
2024-04-23T03:08:50.701Z,71.17
2024-04-23T03:09:53.580Z,71.12
2024-04-23T03:10:56.314Z,71.05
2024-04-23T03:11:59.194Z,71.00
2024-04-23T03:13:02.251Z,70.97
2024-04-23T03:14:04.983Z,71.02
2024-04-23T03:15:08.033Z,71.07
2024-04-23T03:16:10.698Z,71.15
2024-04-23T03:17:13.317Z,71.14
2024-04-23T03:18:16.072Z,71.10
2024-04-23T03:19:18.983Z,71.10
2024-04-23T03:20:21.833Z,71.08
2024-04-23T03:21:24.681Z,71.04
2024-04-23T03:22:27.502Z,71.05
2024-04-23T03:23:30.298Z,71.09
2024-04-23T03:24:35.207Z,71.12
2024-04-23T03:25:40.159Z,70.98
2024-04-23T03:26:43.385Z,70.86
2024-04-23T03:27:46.061Z,70.85
2024-04-23T03:28:49.022Z,70.88
2024-04-23T03:29:51.878Z,70.89
2024-04-23T03:30:54.552Z,70.91
2024-04-23T03:32:02.834Z,70.91
2024-04-23T03:33:06.022Z,70.80
2024-04-23T03:34:08.815Z,70.61
2024-04-23T03:35:11.790Z,70.58
2024-04-23T03:36:17.637Z,70.38
2024-04-23T03:37:20.632Z,70.18
2024-04-23T03:38:23.260Z,70.28
2024-04-23T03:39:25.967Z,70.35
2024-04-23T03:40:28.809Z,70.26
2024-04-23T03:41:31.901Z,70.17
2024-04-23T03:42:34.838Z,70.22
2024-04-23T03:43:37.564Z,70.23
2024-04-23T03:44:41.567Z,70.22
2024-04-23T03:45:45.232Z,70.18
2024-04-23T03:46:47.967Z,70.20
2024-04-23T03:47:50.921Z,70.14
2024-04-23T03:48:53.567Z,70.09
2024-04-23T03:49:56.305Z,70.09
2024-04-23T03:50:59.132Z,70.14
2024-04-23T03:52:11.477Z,70.19
2024-04-23T03:53:14.090Z,70.24
2024-04-23T03:54:16.835Z,70.24
2024-04-23T03:55:19.921Z,70.22
2024-04-23T03:56:22.716Z,70.28
2024-04-23T03:57:25.375Z,70.29
2024-04-23T03:58:28.116Z,70.37
2024-04-23T03:59:30.795Z,70.30
2024-04-23T04:00:33.647Z,70.31
2024-04-23T04:01:36.342Z,70.36
2024-04-23T04:02:57.556Z,70.36
2024-04-23T04:04:18.946Z,70.37
2024-04-23T04:05:40.583Z,70.44
2024-04-23T04:06:43.650Z,70.58
2024-04-23T04:07:46.323Z,70.45
2024-04-23T04:08:49.174Z,70.46
2024-04-23T04:09:51.781Z,70.51
2024-04-23T04:10:54.628Z,70.56
2024-04-23T04:11:59.098Z,70.64
2024-04-23T04:13:12.975Z,70.59
2024-04-23T04:14:23.956Z,70.76
2024-04-23T04:15:26.616Z,70.67
2024-04-23T04:16:33.433Z,70.65
2024-04-23T04:17:38.293Z,70.70
2024-04-23T04:18:41.153Z,70.75
2024-04-23T04:19:46.457Z,70.74
2024-04-23T04:20:49.433Z,70.71
2024-04-23T04:21:52.309Z,70.71
2024-04-23T04:22:55.276Z,70.76
2024-04-23T04:23:57.991Z,70.76
2024-04-23T04:25:00.757Z,70.83
2024-04-23T04:26:04.017Z,70.92
2024-04-23T04:27:06.867Z,70.80
2024-04-23T04:28:09.679Z,70.78
2024-04-23T04:29:12.343Z,70.91
2024-04-23T04:30:15.116Z,71.01
2024-04-23T04:31:17.969Z,70.88
2024-04-23T04:32:20.682Z,70.89
2024-04-23T04:33:23.599Z,70.97
2024-04-23T04:34:26.318Z,70.92
2024-04-23T04:35:29.242Z,70.92
2024-04-23T04:36:32.007Z,70.94
2024-04-23T04:37:36.440Z,71.01
2024-04-23T04:38:39.289Z,71.25
2024-04-23T04:39:43.881Z,71.13
2024-04-23T04:40:46.741Z,71.10
2024-04-23T04:41:49.451Z,71.13
2024-04-23T04:42:52.463Z,71.14
2024-04-23T04:43:55.481Z,71.19
2024-04-23T04:44:58.116Z,71.14
2024-04-23T04:46:00.803Z,71.11
2024-04-23T04:47:05.018Z,71.16
2024-04-23T04:48:09.214Z,71.07
2024-04-23T04:49:12.410Z,71.10
2024-04-23T04:50:15.226Z,71.10
2024-04-23T04:51:20.169Z,71.06
2024-04-23T04:52:22.973Z,71.00
2024-04-23T04:53:25.577Z,71.07
2024-04-23T04:54:28.360Z,71.11
2024-04-23T04:55:32.056Z,70.97
2024-04-23T04:56:34.783Z,70.90
2024-04-23T04:57:37.564Z,70.84
2024-04-23T04:58:40.492Z,70.73
2024-04-23T04:59:43.282Z,70.71
2024-04-23T05:00:46.155Z,70.70
2024-04-23T05:01:49.644Z,70.66
2024-04-23T05:02:52.517Z,70.63
2024-04-23T05:03:58.293Z,70.49
2024-04-23T05:05:01.294Z,70.48
2024-04-23T05:06:04.019Z,70.44
2024-04-23T05:07:06.798Z,70.47
2024-04-23T05:08:09.671Z,70.47
2024-04-23T05:09:12.364Z,70.37
2024-04-23T05:10:15.976Z,70.39
2024-04-23T05:11:19.164Z,70.41
2024-04-23T05:12:21.969Z,70.36
2024-04-23T05:13:24.876Z,70.36
2024-04-23T05:14:27.801Z,70.20
2024-04-23T05:15:30.409Z,70.24
2024-04-23T05:16:33.195Z,70.25
2024-04-23T05:17:36.394Z,70.26
2024-04-23T05:18:39.646Z,70.19
2024-04-23T05:19:44.953Z,69.95
2024-04-23T05:20:47.674Z,69.97
2024-04-23T05:21:50.879Z,69.87
2024-04-23T05:22:53.557Z,69.82
2024-04-23T05:23:56.461Z,69.68
2024-04-23T05:24:59.284Z,69.56
2024-04-23T05:26:02.083Z,69.57
2024-04-23T05:27:05.077Z,69.37
2024-04-23T05:28:07.809Z,69.33
2024-04-23T05:29:10.650Z,69.32
2024-04-23T05:30:36.138Z,69.28
2024-04-23T05:31:58.218Z,69.01
2024-04-23T05:33:01.024Z,69.11
2024-04-23T05:34:03.755Z,69.14
2024-04-23T05:35:07.703Z,68.94
2024-04-23T05:36:10.738Z,68.86
2024-04-23T05:37:13.666Z,68.79
2024-04-23T05:38:17.686Z,68.90
2024-04-23T05:39:20.792Z,68.92
2024-04-23T05:40:24.030Z,68.92
2024-04-23T05:41:26.978Z,68.40
2024-04-23T05:42:29.777Z,68.76
2024-04-23T05:43:32.593Z,68.33
2024-04-23T05:44:35.254Z,68.51
2024-04-23T05:45:38.035Z,68.50
2024-04-23T05:46:40.945Z,68.28
2024-04-23T05:48:21.627Z,68.25
2024-04-23T05:50:26.019Z,68.28
2024-04-23T05:52:30.429Z,68.17
2024-04-23T05:54:30.501Z,68.25
2024-04-23T05:55:51.836Z,67.60
2024-04-23T05:56:54.612Z,67.67
2024-04-23T05:57:57.571Z,66.84
2024-04-23T05:59:00.356Z,66.92
2024-04-23T06:00:03.360Z,66.74
2024-04-23T06:01:10.739Z,66.96
2024-04-23T06:02:13.602Z,66.84
2024-04-23T06:03:16.258Z,66.94
2024-04-23T06:04:20.862Z,66.94
2024-04-23T06:05:24.688Z,66.46
2024-04-23T06:06:27.617Z,66.72
2024-04-23T06:07:30.395Z,66.36
2024-04-23T06:08:33.505Z,66.42
2024-04-23T06:09:36.218Z,66.00
2024-04-23T06:10:39.225Z,65.12
2024-04-23T06:11:42.033Z,65.87
2024-04-23T06:12:48.100Z,65.72
2024-04-23T06:14:06.710Z,65.22
2024-04-23T06:15:09.376Z,65.10
2024-04-23T06:16:12.400Z,65.76
2024-04-23T06:17:15.724Z,65.78
2024-04-23T06:18:23.930Z,64.99
2024-04-23T06:19:28.755Z,64.72
2024-04-23T06:20:31.689Z,65.23
2024-04-23T06:21:34.454Z,65.40
2024-04-23T06:22:39.931Z,65.11
2024-04-23T06:23:43.003Z,65.16
2024-04-23T06:24:50.564Z,65.12
2024-04-23T06:25:53.184Z,63.37
2024-04-23T06:26:55.887Z,63.81
2024-04-23T06:27:58.924Z,63.43
2024-04-23T06:29:02.482Z,63.67
2024-04-23T06:30:07.639Z,64.00
2024-04-23T06:31:13.827Z,63.41
2024-04-23T06:32:18.344Z,63.55
2024-04-23T06:33:21.210Z,63.64
2024-04-23T06:34:24.005Z,63.20
2024-04-23T06:35:26.749Z,63.19
2024-04-23T06:36:29.417Z,61.98
2024-04-23T06:37:33.854Z,62.43
2024-04-23T06:38:36.813Z,61.32
2024-04-23T06:39:40.650Z,61.64
2024-04-23T06:40:43.684Z,61.81
2024-04-23T06:41:46.362Z,61.39
2024-04-23T06:42:49.524Z,61.26
2024-04-23T06:43:52.197Z,61.22
2024-04-23T06:44:56.144Z,60.60
2024-04-23T06:45:58.790Z,60.66
2024-04-23T06:47:01.696Z,60.21
2024-04-23T06:48:05.137Z,60.21
2024-04-23T06:49:08.026Z,59.66
2024-04-23T06:50:10.886Z,59.71
2024-04-23T06:51:13.890Z,59.76
2024-04-23T06:52:18.417Z,58.34
2024-04-23T06:53:21.109Z,58.28
2024-04-23T06:54:24.002Z,59.30
2024-04-23T06:55:26.787Z,57.78
2024-04-23T06:56:29.611Z,59.54
2024-04-23T06:57:32.308Z,59.11
2024-04-23T06:58:35.453Z,59.39
2024-04-23T06:59:38.146Z,60.50
2024-04-23T07:00:40.799Z,59.78
2024-04-23T07:01:44.104Z,59.36
2024-04-23T07:02:47.042Z,59.33
2024-04-23T07:03:50.087Z,57.63
2024-04-23T07:04:52.990Z,58.39
2024-04-23T07:05:55.632Z,59.04
2024-04-23T07:06:58.639Z,58.56
2024-04-23T07:08:01.719Z,59.36
2024-04-23T07:09:05.175Z,59.32
2024-04-23T07:10:08.796Z,58.23
2024-04-23T07:11:11.630Z,59.32
2024-04-23T07:12:14.287Z,59.11
2024-04-23T07:13:17.186Z,59.12
2024-04-23T07:14:20.197Z,58.40
2024-04-23T07:15:23.052Z,58.27
2024-04-23T07:16:26.259Z,58.27
2024-04-23T07:17:29.055Z,58.04
2024-04-23T07:18:31.945Z,58.00
2024-04-23T07:19:34.652Z,58.26
2024-04-23T07:20:38.338Z,58.86
2024-04-23T07:21:41.189Z,58.84
2024-04-23T07:22:43.963Z,56.21
2024-04-23T07:23:46.626Z,56.26
2024-04-23T07:24:49.759Z,55.88
2024-04-23T07:25:52.586Z,56.49
2024-04-23T07:26:55.456Z,57.72
2024-04-23T07:27:58.790Z,56.63
2024-04-23T07:29:01.831Z,57.07
2024-04-23T07:30:05.763Z,56.57
2024-04-23T07:31:08.399Z,56.80
2024-04-23T07:32:14.494Z,55.69
2024-04-23T07:33:19.087Z,57.26
2024-04-23T07:34:21.924Z,57.33
2024-04-23T07:35:26.192Z,57.61
2024-04-23T07:36:29.733Z,57.68
2024-04-23T07:37:32.783Z,57.61
2024-04-23T07:38:37.098Z,57.41
2024-04-23T07:39:39.875Z,57.05
2024-04-23T07:40:49.252Z,57.31
2024-04-23T07:41:52.058Z,57.46
2024-04-23T07:42:54.757Z,58.14
2024-04-23T07:43:57.641Z,57.74
2024-04-23T07:45:00.420Z,56.24
2024-04-23T07:46:03.143Z,56.67
2024-04-23T07:47:06.131Z,56.56
2024-04-23T07:48:09.369Z,57.20
2024-04-23T07:49:12.395Z,56.60
2024-04-23T07:50:15.167Z,55.81
2024-04-23T07:51:18.006Z,57.36
2024-04-23T07:52:20.876Z,56.75
2024-04-23T07:53:23.652Z,57.22
2024-04-23T07:54:26.537Z,57.09
2024-04-23T07:55:29.460Z,57.23
2024-04-23T07:56:32.200Z,57.43
2024-04-23T07:57:35.088Z,56.73
2024-04-23T07:58:38.916Z,57.32
2024-04-23T07:59:41.755Z,57.37
2024-04-23T08:00:44.605Z,57.55
2024-04-23T08:01:47.294Z,57.35
2024-04-23T08:02:55.205Z,57.53
2024-04-23T08:03:57.854Z,57.19
2024-04-23T08:05:00.801Z,57.45
2024-04-23T08:06:03.819Z,57.53
2024-04-23T08:07:06.642Z,57.52
2024-04-23T08:08:09.636Z,58.42
2024-04-23T08:09:12.333Z,58.18
2024-04-23T08:10:18.763Z,57.79
2024-04-23T08:11:22.023Z,58.27
2024-04-23T08:12:24.810Z,58.44
2024-04-23T08:13:28.652Z,58.43
2024-04-23T08:14:31.533Z,58.01
2024-04-23T08:15:34.294Z,58.30
2024-04-23T08:16:37.104Z,58.29
2024-04-23T08:17:40.102Z,58.42
2024-04-23T08:18:43.058Z,58.30
2024-04-23T08:19:45.917Z,58.84
2024-04-23T08:20:48.821Z,58.80
2024-04-23T08:21:52.012Z,59.01
2024-04-23T08:22:57.743Z,59.06
2024-04-23T08:24:00.374Z,59.23
2024-04-23T08:25:03.313Z,59.41
2024-04-23T08:26:16.304Z,59.42
2024-04-23T08:27:20.030Z,58.90
2024-04-23T08:28:22.683Z,59.24
2024-04-23T08:29:25.476Z,59.60
2024-04-23T08:30:28.185Z,59.77
2024-04-23T08:31:31.094Z,59.83
2024-04-23T08:32:33.952Z,59.98
2024-04-23T08:33:36.837Z,59.94
2024-04-23T08:34:39.823Z,59.85
2024-04-23T08:35:42.680Z,59.74
2024-04-23T08:36:45.579Z,59.53
2024-04-23T08:37:48.562Z,59.31
2024-04-23T08:38:51.587Z,59.28
2024-04-23T08:39:54.360Z,59.46
2024-04-23T08:40:57.431Z,59.75
2024-04-23T08:42:01.959Z,59.71
2024-04-23T08:43:16.423Z,59.64
2024-04-23T08:44:22.311Z,59.44
2024-04-23T08:45:30.261Z,59.41
2024-04-23T08:46:33.056Z,59.31
2024-04-23T08:47:37.989Z,59.64
2024-04-23T08:48:42.280Z,59.36
2024-04-23T08:49:48.576Z,59.30
2024-04-23T08:50:52.033Z,58.65
2024-04-23T08:51:56.780Z,58.65
2024-04-23T08:53:00.264Z,58.54
2024-04-23T08:54:05.781Z,58.76
2024-04-23T08:55:09.254Z,58.31
2024-04-23T08:56:17.223Z,58.74
2024-04-23T08:57:20.468Z,57.68
2024-04-23T08:58:23.717Z,58.02
2024-04-23T08:59:27.678Z,57.36
2024-04-23T09:00:38.092Z,57.57
2024-04-23T09:01:50.409Z,57.25
2024-04-23T09:02:53.891Z,57.71
2024-04-23T09:03:58.097Z,57.66
2024-04-23T09:05:03.611Z,57.59
2024-04-23T09:06:06.978Z,58.11
2024-04-23T09:07:17.641Z,57.83
2024-04-23T09:08:27.713Z,57.43
2024-04-23T09:09:31.609Z,57.82
2024-04-23T09:10:35.192Z,57.89
2024-04-23T09:11:38.023Z,57.37
2024-04-23T09:12:47.091Z,56.69
2024-04-23T09:13:50.375Z,56.53
2024-04-23T09:14:56.597Z,57.13
2024-04-23T09:15:59.396Z,56.85
2024-04-23T09:17:02.198Z,56.27
2024-04-23T09:18:05.449Z,56.78
2024-04-23T09:19:09.413Z,55.87
2024-04-23T09:20:15.212Z,56.58
2024-04-23T09:21:19.513Z,56.41
2024-04-23T09:22:22.351Z,56.15
2024-04-23T09:23:28.884Z,56.14
2024-04-23T09:24:32.329Z,54.90
2024-04-23T09:25:36.266Z,55.08
2024-04-23T09:26:39.459Z,54.62
2024-04-23T09:27:42.278Z,55.12
2024-04-23T09:28:47.419Z,54.74
2024-04-23T09:29:55.126Z,54.30
2024-04-23T09:30:57.835Z,53.96
2024-04-23T09:32:01.334Z,54.66
2024-04-23T09:33:04.987Z,54.94
2024-04-23T09:34:12.032Z,55.03
2024-04-23T09:35:18.399Z,55.18
2024-04-23T09:36:26.125Z,55.17
2024-04-23T09:37:28.784Z,55.18
2024-04-23T09:38:38.596Z,54.96
2024-04-23T09:39:44.384Z,54.42
2024-04-23T09:40:48.884Z,55.26
2024-04-23T09:42:01.054Z,55.29
2024-04-23T09:43:04.355Z,54.57
2024-04-23T09:44:11.890Z,54.39
2024-04-23T09:45:15.145Z,54.40
2024-04-23T09:46:17.933Z,54.44
2024-04-23T09:47:23.324Z,54.62
2024-04-23T09:48:36.657Z,55.12
2024-04-23T09:49:39.719Z,55.45
2024-04-23T09:50:42.467Z,56.18
2024-04-23T09:51:45.122Z,56.28
2024-04-23T09:52:49.468Z,56.33
2024-04-23T09:53:53.807Z,56.49
2024-04-23T09:54:57.001Z,56.32
2024-04-23T09:56:05.237Z,56.23
2024-04-23T09:57:07.985Z,55.89
2024-04-23T09:58:10.882Z,55.40
2024-04-23T09:59:16.228Z,55.21
2024-04-23T10:00:21.167Z,55.06
2024-04-23T10:01:28.352Z,54.55
2024-04-23T10:02:37.636Z,54.28
2024-04-23T10:03:44.047Z,54.15
2024-04-23T10:04:51.126Z,53.68
2024-04-23T10:06:02.187Z,53.77
2024-04-23T10:07:10.080Z,53.29
2024-04-23T10:08:19.210Z,53.05
2024-04-23T10:09:28.890Z,53.01
2024-04-23T10:10:43.540Z,52.89
2024-04-23T10:11:52.343Z,53.47
2024-04-23T10:12:57.062Z,53.23
2024-04-23T10:14:08.102Z,52.51
2024-04-23T10:15:27.237Z,53.49
2024-04-23T10:16:40.484Z,53.06
2024-04-23T10:17:51.428Z,52.85
2024-04-23T10:19:02.822Z,53.59
2024-04-23T10:20:08.928Z,53.73
2024-04-23T10:21:14.971Z,53.56
2024-04-23T10:22:18.769Z,53.22
2024-04-23T10:23:22.184Z,53.51
2024-04-23T10:24:25.552Z,53.15
2024-04-23T10:25:29.396Z,52.84
2024-04-23T10:26:34.161Z,52.83
2024-04-23T10:27:38.884Z,53.25
2024-04-23T10:28:43.415Z,53.00
2024-04-23T10:29:46.754Z,51.04
2024-04-23T10:30:50.432Z,51.10
2024-04-23T10:31:53.237Z,50.41
2024-04-23T10:32:57.995Z,48.67
2024-04-23T10:34:02.662Z,49.58
2024-04-23T10:35:06.037Z,49.32
2024-04-23T10:36:10.213Z,48.74
2024-04-23T10:37:14.713Z,48.42
2024-04-23T10:38:18.984Z,47.10
2024-04-23T10:39:23.955Z,48.13
2024-04-23T10:40:31.414Z,48.13
2024-04-23T10:41:39.806Z,47.82
2024-04-23T10:42:44.342Z,49.07
2024-04-23T10:43:49.327Z,49.38
2024-04-23T10:44:54.147Z,48.55
2024-04-23T10:45:56.924Z,48.91
2024-04-23T10:46:59.678Z,48.86
2024-04-23T10:48:09.001Z,48.55
2024-04-23T10:49:17.615Z,48.49
2024-04-23T10:50:31.780Z,49.82
2024-04-23T10:51:35.166Z,50.02
2024-04-23T10:52:37.970Z,50.13
2024-04-23T10:53:42.056Z,49.75
2024-04-23T10:54:45.317Z,49.60
2024-04-23T10:55:52.112Z,48.19
2024-04-23T10:56:59.798Z,48.13
2024-04-23T10:58:02.521Z,48.57
2024-04-23T10:59:12.672Z,47.95
2024-04-23T11:00:15.852Z,48.13
2024-04-23T11:01:24.752Z,48.16
2024-04-23T11:02:27.545Z,48.74
2024-04-23T11:03:35.253Z,48.68
2024-04-23T11:04:42.788Z,49.09
2024-04-23T11:05:49.657Z,49.54
2024-04-23T11:07:05.161Z,49.78
2024-04-23T11:08:08.872Z,48.74
2024-04-23T11:09:22.108Z,48.91
2024-04-23T11:10:25.390Z,49.33
2024-04-23T11:11:37.587Z,49.61
2024-04-23T11:12:48.915Z,49.45
2024-04-23T11:13:59.066Z,48.92
2024-04-23T11:15:01.901Z,48.88
2024-04-23T11:16:19.193Z,48.67
2024-04-23T11:17:22.944Z,48.41
2024-04-23T11:18:26.688Z,48.07
2024-04-23T11:19:40.239Z,47.94
2024-04-23T11:20:45.635Z,47.90
2024-04-23T11:21:49.283Z,48.22
2024-04-23T11:23:00.476Z,47.94
2024-04-23T11:24:09.305Z,47.39
2024-04-23T11:25:23.429Z,47.99
2024-04-23T11:26:26.800Z,47.63
2024-04-23T11:27:30.638Z,48.02
2024-04-23T11:28:37.094Z,48.19
2024-04-23T11:29:41.697Z,48.65
2024-04-23T11:30:52.367Z,48.05
2024-04-23T11:31:55.932Z,47.59
2024-04-23T11:32:58.905Z,47.83
2024-04-23T11:34:02.879Z,48.21
2024-04-23T11:35:09.053Z,48.62
2024-04-23T11:36:13.570Z,48.78
2024-04-23T11:37:28.766Z,49.00
2024-04-23T11:38:41.837Z,49.49
2024-04-23T11:39:44.684Z,49.80
2024-04-23T11:40:50.752Z,49.66
2024-04-23T11:41:57.429Z,49.49
2024-04-23T11:43:00.041Z,49.22
2024-04-23T11:44:04.926Z,48.28
2024-04-23T11:45:08.127Z,48.42
2024-04-23T11:46:15.244Z,48.60
2024-04-23T11:47:17.986Z,48.07
2024-04-23T11:48:20.937Z,46.78
2024-04-23T11:49:27.401Z,46.76
2024-04-23T11:50:30.668Z,46.84
2024-04-23T11:51:33.316Z,46.42
2024-04-23T11:52:36.774Z,47.06
2024-04-23T11:53:39.722Z,46.70
2024-04-23T11:54:42.855Z,47.00
2024-04-23T11:55:46.720Z,47.14
2024-04-23T11:56:51.228Z,46.52
2024-04-23T11:57:54.711Z,47.03
2024-04-23T11:58:59.770Z,46.70
2024-04-23T12:00:03.717Z,47.02
2024-04-23T12:01:09.188Z,46.64
2024-04-23T12:02:13.030Z,46.76
2024-04-23T12:03:16.612Z,46.75
2024-04-23T12:04:21.644Z,47.43
2024-04-23T12:05:27.607Z,47.38
2024-04-23T12:06:32.038Z,47.62
2024-04-23T12:07:35.948Z,46.82
2024-04-23T12:08:39.751Z,46.76
2024-04-23T12:09:42.602Z,46.76
2024-04-23T12:10:46.795Z,46.56
2024-04-23T12:11:49.858Z,47.26
2024-04-23T12:12:52.860Z,46.94
2024-04-23T12:13:55.584Z,46.79
2024-04-23T12:14:58.604Z,47.05
2024-04-23T12:16:03.056Z,46.37
2024-04-23T12:17:07.819Z,46.58
2024-04-23T12:18:11.108Z,47.21
2024-04-23T12:19:13.956Z,46.69
2024-04-23T12:20:16.965Z,46.67
2024-04-23T12:21:19.759Z,46.31
2024-04-23T12:22:22.961Z,46.85
2024-04-23T12:23:25.682Z,45.85
2024-04-23T12:24:30.898Z,46.00
2024-04-23T12:25:34.555Z,46.12
2024-04-23T12:26:37.264Z,46.63
2024-04-23T12:27:45.450Z,46.19
2024-04-23T12:28:48.523Z,45.98
2024-04-23T12:29:52.868Z,46.24
2024-04-23T12:30:56.521Z,45.82
2024-04-23T12:32:00.452Z,46.23
2024-04-23T12:33:13.498Z,46.47
2024-04-23T12:34:19.459Z,46.63
2024-04-23T12:35:22.381Z,46.46
2024-04-23T12:36:25.324Z,46.38
2024-04-23T12:37:28.331Z,46.77
2024-04-23T12:38:49.345Z,46.48
2024-04-23T12:39:54.047Z,46.45
2024-04-23T12:40:56.895Z,46.85
2024-04-23T12:42:14.072Z,46.60
2024-04-23T12:43:17.136Z,46.40
2024-04-23T12:44:22.981Z,45.88
2024-04-23T12:45:25.931Z,45.52
2024-04-23T12:46:28.717Z,45.59
2024-04-23T12:47:31.835Z,46.14
2024-04-23T12:48:36.057Z,46.18
2024-04-23T12:49:41.951Z,46.45
2024-04-23T12:50:44.906Z,46.18
2024-04-23T12:51:49.054Z,46.31
2024-04-23T12:52:52.943Z,46.15
2024-04-23T12:53:56.109Z,46.16
2024-04-23T12:54:58.750Z,45.83
2024-04-23T12:56:02.029Z,46.03
2024-04-23T12:57:07.398Z,46.06
2024-04-23T12:58:10.137Z,46.51
2024-04-23T12:59:14.818Z,46.14
2024-04-23T13:00:17.521Z,45.89
2024-04-23T13:01:21.464Z,46.39
2024-04-23T13:02:25.608Z,46.71
2024-04-23T13:03:28.653Z,46.81
2024-04-23T13:04:31.894Z,46.89
2024-04-23T13:05:34.757Z,46.71
2024-04-23T13:06:37.700Z,47.06
2024-04-23T13:07:40.526Z,46.49
2024-04-23T13:08:45.546Z,46.66
2024-04-23T13:09:48.348Z,46.80
2024-04-23T13:10:51.206Z,46.66
2024-04-23T13:11:55.823Z,46.76
2024-04-23T13:12:59.253Z,46.64
2024-04-23T13:14:02.132Z,46.98
2024-04-23T13:15:05.303Z,47.25
2024-04-23T13:16:10.097Z,47.71
2024-04-23T13:17:12.856Z,47.85
2024-04-23T13:18:15.672Z,48.21
2024-04-23T13:19:21.052Z,48.31
2024-04-23T13:20:23.748Z,48.69
2024-04-23T13:21:26.635Z,48.62
2024-04-23T13:22:29.269Z,48.82
2024-04-23T13:23:32.297Z,48.81
2024-04-23T13:24:35.160Z,48.88
2024-04-23T13:25:39.179Z,49.07
2024-04-23T13:26:41.958Z,49.17
2024-04-23T13:27:44.806Z,49.56
2024-04-23T13:28:47.680Z,49.87
2024-04-23T13:29:51.361Z,49.57
2024-04-23T13:30:57.792Z,49.33
2024-04-23T13:32:01.717Z,48.88
2024-04-23T13:33:04.918Z,48.95
2024-04-23T13:34:10.981Z,49.09
2024-04-23T13:35:13.866Z,48.45
2024-04-23T13:36:16.792Z,48.76
2024-04-23T13:37:19.511Z,48.84
2024-04-23T13:38:22.288Z,48.88
2024-04-23T13:39:26.013Z,48.66
2024-04-23T13:40:30.593Z,48.80
2024-04-23T13:41:33.440Z,49.02
2024-04-23T13:42:37.144Z,49.22
2024-04-23T13:43:39.983Z,49.39
2024-04-23T13:44:43.268Z,49.38
2024-04-23T13:45:46.090Z,49.36
2024-04-23T13:46:49.372Z,49.09
2024-04-23T13:47:52.327Z,49.30
2024-04-23T13:48:55.340Z,49.16
2024-04-23T13:49:58.307Z,49.18
2024-04-23T13:51:01.238Z,49.34
2024-04-23T13:52:04.818Z,49.56
2024-04-23T13:53:07.761Z,49.73
2024-04-23T13:54:10.878Z,49.92
2024-04-23T13:55:15.007Z,50.15
2024-04-23T13:56:17.745Z,50.35
2024-04-23T13:57:20.509Z,50.53
2024-04-23T13:58:23.910Z,50.83
2024-04-23T13:59:27.018Z,51.23
2024-04-23T14:00:29.901Z,51.59
2024-04-23T14:01:32.728Z,51.41
2024-04-23T14:02:35.734Z,51.48
2024-04-23T14:03:39.901Z,51.57
2024-04-23T14:04:45.856Z,51.76
2024-04-23T14:05:48.721Z,51.94
2024-04-23T14:06:54.390Z,52.22
2024-04-23T14:07:57.438Z,52.38
2024-04-23T14:09:00.417Z,52.41
2024-04-23T14:10:03.717Z,52.40
2024-04-23T14:11:09.911Z,52.62
2024-04-23T14:12:13.253Z,53.01
2024-04-23T14:13:15.929Z,53.32
2024-04-23T14:14:18.922Z,53.34
2024-04-23T14:15:23.565Z,53.31
2024-04-23T14:16:27.088Z,53.52
2024-04-23T14:17:30.606Z,53.49
2024-04-23T14:18:33.409Z,53.75
2024-04-23T14:19:36.287Z,53.92
2024-04-23T14:20:39.046Z,53.93
2024-04-23T14:21:42.228Z,53.76
2024-04-23T14:22:44.970Z,53.70
2024-04-23T14:23:47.764Z,53.73
2024-04-23T14:24:50.575Z,53.81
2024-04-23T14:25:53.395Z,53.97
2024-04-23T14:26:56.480Z,54.07
2024-04-23T14:27:59.148Z,54.37
2024-04-23T14:29:01.946Z,54.39
2024-04-23T14:30:05.189Z,54.55
2024-04-23T14:31:08.403Z,54.99
2024-04-23T14:32:14.105Z,55.26
2024-04-23T14:33:17.159Z,55.24
2024-04-23T14:34:23.771Z,56.40
2024-04-23T14:35:27.236Z,56.82
2024-04-23T14:36:30.253Z,56.49
2024-04-23T14:37:34.364Z,56.84
2024-04-23T14:38:37.228Z,56.71
2024-04-23T14:39:39.814Z,56.61
2024-04-23T14:40:42.643Z,56.92
2024-04-23T14:41:46.504Z,57.05
2024-04-23T14:42:49.663Z,57.11
2024-04-23T14:43:52.503Z,57.60
2024-04-23T14:44:58.161Z,57.13
2024-04-23T14:46:12.885Z,56.86
2024-04-23T14:47:15.815Z,56.81
2024-04-23T14:48:19.212Z,56.70
2024-04-23T14:49:28.038Z,56.72
2024-04-23T14:50:31.499Z,56.82
2024-04-23T14:51:34.304Z,56.67
2024-04-23T14:52:36.985Z,56.62
2024-04-23T14:53:40.089Z,56.71
2024-04-23T14:54:42.873Z,56.66
2024-04-23T14:55:45.618Z,56.46
2024-04-23T14:56:51.529Z,56.38
2024-04-23T14:57:56.170Z,56.38
2024-04-23T14:59:00.903Z,56.90
2024-04-23T15:00:03.738Z,56.88
2024-04-23T15:01:11.047Z,56.67
2024-04-23T15:02:16.621Z,56.63
2024-04-23T15:03:19.395Z,56.37
2024-04-23T15:04:22.852Z,56.28
2024-04-23T15:05:25.876Z,56.22
2024-04-23T15:06:30.002Z,55.77
2024-04-23T15:07:33.227Z,55.30
2024-04-23T15:08:38.307Z,55.50
2024-04-23T15:09:41.088Z,55.69
2024-04-23T15:10:48.678Z,55.67
2024-04-23T15:11:54.726Z,55.86
2024-04-23T15:13:02.851Z,56.16
2024-04-23T15:14:05.653Z,56.39
2024-04-23T15:15:11.405Z,56.74
2024-04-23T15:16:14.022Z,57.10
2024-04-23T15:17:17.050Z,57.08
2024-04-23T15:18:19.959Z,57.18
2024-04-23T15:19:22.663Z,57.17
2024-04-23T15:20:26.935Z,57.28
2024-04-23T15:21:29.638Z,57.25
2024-04-23T15:22:32.264Z,57.36